Time;durP1;ratioP1;P1;durP2;ratioP2;P2;SDS_P1;SDS_P2;PMS_P1;PMS_P2;Temp;Humidity;BMP_temperature;BMP_pressure;BME280_temperature;BME280_humidity;BME280_pressure;Samples;Min_cycle;Max_cycle;Signal;HPM_P1;HPM_P2
2021/12/15 00:02:25;;;;;;;50.75;23.25;;;8.00;86.80;;;;;;5018018;28;20235;-69
2021/12/15 00:04:56;;;;;;;44.67;23.02;;;8.10;86.80;;;;;;5022135;28;20199;-69
2021/12/15 00:07:26;;;;;;;46.80;24.58;;;8.10;86.80;;;;;;5021577;28;20212;-69
2021/12/15 00:09:54;;;;;;;48.25;23.10;;;8.10;86.80;;;;;;5025079;28;20760;-69
2021/12/15 00:12:23;;;;;;;46.67;23.48;;;8.10;86.80;;;;;;5019675;28;20712;-69
2021/12/15 00:14:53;;;;;;;60.17;27.33;;;8.10;86.80;;;;;;5020973;28;20733;-69
2021/12/15 00:17:22;;;;;;;66.97;28.77;;;8.10;86.80;;;;;;5019610;28;20235;-69
2021/12/15 00:19:52;;;;;;;53.28;26.52;;;8.10;86.70;;;;;;5023260;28;20933;-68
2021/12/15 00:22:20;;;;;;;51.20;25.10;;;8.10;86.80;;;;;;5018460;28;20273;-69
2021/12/15 00:24:49;;;;;;;56.10;27.58;;;8.10;86.90;;;;;;5019747;28;20207;-69
2021/12/15 00:27:17;;;;;;;53.97;26.25;;;8.10;86.80;;;;;;5020718;28;20662;-69
2021/12/15 00:29:45;;;;;;;56.85;27.42;;;8.10;86.70;;;;;;5016412;28;20224;-69
2021/12/15 00:32:13;;;;;;;57.20;28.00;;;8.10;86.80;;;;;;5024100;28;20712;-68
2021/12/15 00:34:41;;;;;;;63.03;29.50;;;8.10;86.90;;;;;;5022707;28;20207;-69
2021/12/15 00:37:11;;;;;;;53.58;28.35;;;8.10;86.80;;;;;;5018531;28;20672;-69
2021/12/15 00:39:39;;;;;;;59.20;26.83;;;8.10;86.80;;;;;;5022167;28;20235;-69
2021/12/15 00:42:07;;;;;;;63.30;29.38;;;8.10;86.90;;;;;;5015167;28;20206;-69
2021/12/15 00:44:37;;;;;;;58.53;27.27;;;8.10;86.80;;;;;;5021083;28;20193;-69
2021/12/15 00:47:06;;;;;;;64.43;28.85;;;8.10;86.80;;;;;;5019111;28;20314;-69
2021/12/15 00:49:34;;;;;;;66.25;28.75;;;8.10;86.80;;;;;;5019468;28;20228;-69
2021/12/15 00:52:06;;;;;;;60.40;27.75;;;8.10;86.80;;;;;;5032732;28;20235;-69
2021/12/15 00:54:37;;;;;;;51.22;26.38;;;8.10;86.80;;;;;;5017450;28;20212;-69
2021/12/15 00:57:06;;;;;;;52.13;25.70;;;8.10;86.70;;;;;;5024502;28;20204;-69
2021/12/15 00:59:34;;;;;;;60.50;28.30;;;8.10;86.80;;;;;;5028190;28;20584;-69
2021/12/15 01:02:02;;;;;;;53.25;25.58;;;8.10;86.80;;;;;;5016871;28;20525;-69
2021/12/15 01:04:31;;;;;;;44.70;24.02;;;8.10;86.90;;;;;;5019058;28;20657;-69
2021/12/15 01:07:04;;;;;;;51.20;24.70;;;8.10;86.80;;;;;;5025282;28;20215;-70
2021/12/15 01:09:38;;;;;;;47.03;23.23;;;8.10;86.80;;;;;;5020648;28;20721;-69
2021/12/15 01:12:19;;;;;;;45.03;23.05;;;8.10;86.70;;;;;;5015682;28;20880;-69
2021/12/15 01:20:37;;;;;;;45.90;23.48;;;8.10;86.90;;;;;;5032612;28;20227;-69
2021/12/15 01:23:09;;;;;;;52.70;25.05;;;8.10;86.90;;;;;;5019252;28;20208;-69
2021/12/15 01:25:40;;;;;;;56.60;27.33;;;8.10;86.90;;;;;;5021275;28;20211;-69
2021/12/15 01:28:10;;;;;;;52.03;25.52;;;8.10;86.90;;;;;;5021374;28;20673;-69
2021/12/15 01:30:41;;;;;;;57.65;26.90;;;8.10;86.90;;;;;;5021043;28;20235;-69
2021/12/15 01:33:10;;;;;;;56.03;26.73;;;8.10;86.90;;;;;;5020515;28;20203;-69
2021/12/15 01:35:42;;;;;;;58.03;26.30;;;8.20;86.80;;;;;;5033482;28;20208;-69
2021/12/15 01:38:10;;;;;;;57.70;26.73;;;8.20;86.80;;;;;;5017726;28;20211;-69
2021/12/15 01:40:41;;;;;;;54.67;26.35;;;8.20;86.80;;;;;;5034751;28;20744;-69
2021/12/15 01:43:16;;;;;;;58.90;28.00;;;8.10;86.80;;;;;;5017842;28;20641;-69
2021/12/15 01:48:34;;;;;;;53.63;24.25;;;8.10;86.80;;;;;;5034980;28;20270;-69
2021/12/15 01:51:03;;;;;;;61.95;29.23;;;8.10;86.80;;;;;;5017925;28;20283;-69
2021/12/15 01:53:32;;;;;;;57.97;27.33;;;8.10;86.80;;;;;;5022767;28;20208;-69
2021/12/15 01:56:01;;;;;;;63.50;26.83;;;8.10;86.80;;;;;;5034870;28;20204;-69
2021/12/15 01:58:31;;;;;;;62.15;27.20;;;8.20;86.80;;;;;;5018773;28;20214;-69
2021/12/15 02:01:04;;;;;;;57.65;26.17;;;8.20;86.80;;;;;;5014200;28;20341;-69
2021/12/15 02:03:33;;;;;;;63.00;26.95;;;8.20;86.80;;;;;;5018870;28;20205;-69
2021/12/15 02:06:02;;;;;;;61.70;26.92;;;8.10;86.70;;;;;;5019551;28;20200;-69
2021/12/15 02:08:30;;;;;;;69.03;29.25;;;8.10;86.80;;;;;;5024530;28;20205;-69
2021/12/15 02:10:59;;;;;;;63.42;29.90;;;8.20;86.70;;;;;;5017913;28;20399;-69
2021/12/15 02:13:27;;;;;;;73.72;28.30;;;8.10;86.70;;;;;;5017321;28;20258;-69
2021/12/15 02:16:00;;;;;;;61.90;26.75;;;8.10;86.70;;;;;;5019940;28;20296;-69
2021/12/15 02:18:32;;;;;;;71.22;28.88;;;8.10;86.70;;;;;;5020250;28;20285;-69
2021/12/15 02:21:06;;;;;;;59.20;27.55;;;8.10;86.70;;;;;;5014199;28;20216;-71
2021/12/15 02:23:40;;;;;;;59.50;24.98;;;8.10;86.70;;;;;;5017168;28;20268;-70
2021/12/15 02:26:14;;;;;;;53.42;25.42;;;8.10;86.60;;;;;;5024825;28;20204;-70
2021/12/15 02:28:46;;;;;;;53.80;24.95;;;8.10;86.80;;;;;;5021657;28;20669;-70
2021/12/15 02:31:24;;;;;;;64.28;27.58;;;8.10;86.80;;;;;;5012800;28;20331;-70
2021/12/15 02:34:00;;;;;;;57.47;24.95;;;8.10;86.80;;;;;;5033018;28;20629;-70
2021/12/15 02:39:17;;;;;;;64.05;28.23;;;8.10;86.80;;;;;;5025859;28;20223;-70
2021/12/15 02:41:46;;;;;;;56.85;25.30;;;8.10;86.80;;;;;;5019597;28;20804;-70
2021/12/15 02:44:17;;;;;;;56.25;24.02;;;8.10;86.80;;;;;;5039787;28;20220;-70
2021/12/15 02:46:46;;;;;;;61.38;25.35;;;8.10;86.80;;;;;;5022536;28;20805;-70
2021/12/15 02:49:17;;;;;;;64.95;25.48;;;8.10;86.80;;;;;;5024052;28;20253;-70
2021/12/15 02:51:49;;;;;;;84.18;27.02;;;8.10;86.80;;;;;;5014406;28;20199;-68
2021/12/15 02:54:20;;;;;;;77.97;26.45;;;8.00;86.80;;;;;;5019325;28;20210;-69
2021/12/15 02:56:51;;;;;;;71.63;25.58;;;8.00;86.80;;;;;;5027848;28;20206;-68
2021/12/15 02:59:24;;;;;;;78.47;25.45;;;8.00;86.80;;;;;;5023576;28;20214;-69
2021/12/15 03:02:03;;;;;;;71.88;28.27;;;8.00;86.80;;;;;;5026491;28;20604;-69
2021/12/15 03:04:40;;;;;;;56.85;21.90;;;8.00;86.70;;;;;;5024339;28;20235;-68
2021/12/15 03:07:16;;;;;;;63.38;23.65;;;8.00;86.70;;;;;;5028464;28;20695;-69
2021/12/15 03:15:35;;;;;;;66.85;25.80;;;7.90;86.80;;;;;;5019273;28;20219;-69
2021/12/15 03:18:08;;;;;;;64.32;23.90;;;7.90;86.80;;;;;;5021625;28;20205;-68
2021/12/15 03:20:41;;;;;;;62.83;26.30;;;7.90;86.80;;;;;;5021068;28;20720;-69
2021/12/15 03:23:13;;;;;;;63.30;25.90;;;7.90;86.90;;;;;;5016018;28;20210;-68
2021/12/15 03:25:41;;;;;;;61.70;25.42;;;7.90;86.90;;;;;;5034102;28;20280;-69
2021/12/15 03:33:56;;;;;;;60.10;23.73;;;8.00;86.90;;;;;;5019793;28;20231;-68
2021/12/15 03:36:39;;;;;;;53.78;21.60;;;8.00;87.00;;;;;;5022591;28;20207;-69
2021/12/15 03:39:12;;;;;;;51.20;20.20;;;8.00;87.00;;;;;;5023027;28;20296;-69
2021/12/15 03:41:40;;;;;;;50.80;21.73;;;8.00;86.90;;;;;;5016921;28;20850;-68
2021/12/15 03:44:08;;;;;;;59.70;22.55;;;8.00;86.90;;;;;;5022842;28;20262;-69
2021/12/15 03:46:36;;;;;;;49.00;21.63;;;8.00;86.80;;;;;;5022429;28;20351;-68
2021/12/15 03:49:05;;;;;;;50.75;21.80;;;8.00;86.80;;;;;;5026006;28;20324;-69
2021/12/15 03:51:33;;;;;;;52.78;24.02;;;8.00;86.90;;;;;;5019957;28;20196;-69
2021/12/15 03:54:01;;;;;;;70.50;23.98;;;8.00;86.90;;;;;;5020328;28;20208;-68
2021/12/15 03:56:30;;;;;;;71.45;24.30;;;8.00;86.90;;;;;;5021355;28;20258;-69
2021/12/15 03:58:58;;;;;;;70.43;24.08;;;8.00;86.90;;;;;;5022162;28;20236;-68
2021/12/15 04:01:26;;;;;;;62.28;24.88;;;8.00;86.90;;;;;;5023165;28;20274;-68
2021/12/15 04:03:56;;;;;;;69.22;24.20;;;8.00;86.90;;;;;;5022307;28;20289;-68
2021/12/15 04:06:27;;;;;;;59.33;22.67;;;8.00;86.80;;;;;;5018983;28;20197;-69
2021/12/15 04:08:56;;;;;;;68.18;23.15;;;8.00;86.90;;;;;;5018857;28;20210;-69
2021/12/15 04:11:35;;;;;;;56.45;22.50;;;8.00;86.90;;;;;;5020946;28;20202;-69
2021/12/15 04:14:08;;;;;;;50.70;21.00;;;8.00;86.90;;;;;;5020211;28;20273;-69
2021/12/15 04:16:44;;;;;;;42.67;19.70;;;8.00;86.90;;;;;;5021816;28;20238;-69
2021/12/15 04:19:14;;;;;;;49.45;21.83;;;8.00;86.90;;;;;;5033679;28;20241;-69
2021/12/15 04:21:43;;;;;;;56.58;20.65;;;8.00;86.90;;;;;;5019693;28;20278;-69
2021/12/15 04:24:13;;;;;;;52.20;20.98;;;8.00;86.90;;;;;;5025342;28;20612;-69
2021/12/15 04:26:43;;;;;;;44.47;19.42;;;8.00;86.80;;;;;;5026313;28;20251;-69
2021/12/15 04:29:12;;;;;;;48.97;19.05;;;8.00;86.80;;;;;;5023961;28;20286;-69
2021/12/15 04:31:42;;;;;;;41.55;17.42;;;8.00;86.80;;;;;;5013440;28;20239;-69
2021/12/15 04:34:12;;;;;;;46.45;19.58;;;8.00;86.80;;;;;;5015888;28;20212;-69
2021/12/15 04:36:42;;;;;;;40.95;17.83;;;8.00;86.80;;;;;;5020373;28;20206;-69
2021/12/15 04:39:13;;;;;;;43.33;19.30;;;8.00;86.80;;;;;;5023075;28;20814;-68
2021/12/15 04:41:47;;;;;;;38.03;17.73;;;8.00;86.80;;;;;;5019284;28;20264;-68
2021/12/15 04:44:16;;;;;;;42.92;19.33;;;7.90;86.70;;;;;;5018026;28;20207;-68
2021/12/15 04:46:47;;;;;;;40.03;17.83;;;8.00;86.70;;;;;;5020167;28;20236;-69
2021/12/15 04:49:19;;;;;;;42.58;18.55;;;7.90;86.70;;;;;;5023512;28;20231;-69
2021/12/15 04:51:49;;;;;;;46.72;19.88;;;7.90;86.70;;;;;;5023566;28;20207;-69
2021/12/15 04:54:19;;;;;;;44.72;19.60;;;7.90;86.70;;;;;;5023256;28;20269;-68
2021/12/15 04:56:48;;;;;;;47.83;21.92;;;7.90;86.70;;;;;;5027307;28;20203;-70
2021/12/15 04:59:17;;;;;;;47.55;19.77;;;7.90;86.80;;;;;;5028162;28;20300;-69
2021/12/15 05:01:46;;;;;;;52.13;18.80;;;7.90;86.80;;;;;;5017814;28;20231;-69
2021/12/15 05:04:16;;;;;;;56.35;20.42;;;7.90;86.70;;;;;;5019499;28;20290;-68
2021/12/15 05:06:44;;;;;;;53.10;21.13;;;7.90;86.70;;;;;;5016258;28;20261;-69
2021/12/15 05:09:14;;;;;;;52.42;20.55;;;7.90;86.70;;;;;;5020564;28;20234;-69
2021/12/15 05:11:42;;;;;;;43.38;19.05;;;7.90;86.70;;;;;;5018129;28;20221;-69
2021/12/15 05:14:12;;;;;;;43.45;19.02;;;7.90;86.70;;;;;;5019928;28;20211;-69
2021/12/15 05:16:39;;;;;;;45.88;18.27;;;7.90;86.70;;;;;;5017344;28;20235;-69
2021/12/15 05:19:07;;;;;;;48.25;19.83;;;7.90;86.70;;;;;;5020193;28;20994;-69
2021/12/15 05:21:35;;;;;;;50.20;20.42;;;7.90;86.70;;;;;;5020111;28;20270;-69
2021/12/15 05:24:12;;;;;;;55.17;19.40;;;7.90;86.70;;;;;;5017301;28;20204;-70
2021/12/15 05:26:40;;;;;;;53.28;20.48;;;7.90;86.60;;;;;;5018114;28;20196;-70
2021/12/15 05:29:08;;;;;;;52.15;20.52;;;7.90;86.60;;;;;;5018003;28;20287;-69
2021/12/15 05:31:39;;;;;;;51.08;18.92;;;7.90;86.70;;;;;;5016948;28;20806;-68
2021/12/15 05:34:08;;;;;;;55.47;20.45;;;7.90;86.60;;;;;;5022088;28;20676;-69
2021/12/15 05:36:36;;;;;;;56.20;20.58;;;7.90;86.60;;;;;;5021025;28;20680;-69
2021/12/15 05:39:06;;;;;;;66.05;22.25;;;7.90;86.60;;;;;;5017238;28;20677;-68
2021/12/15 05:41:34;;;;;;;69.43;21.98;;;7.90;86.60;;;;;;5011869;28;20215;-69
2021/12/15 05:44:03;;;;;;;54.25;20.65;;;7.90;86.60;;;;;;5016251;28;20215;-69
2021/12/15 05:46:31;;;;;;;62.08;20.73;;;7.80;86.50;;;;;;5010979;28;20231;-69
2021/12/15 05:49:01;;;;;;;62.17;19.70;;;7.80;86.50;;;;;;5021006;28;20600;-69
2021/12/15 05:51:28;;;;;;;96.07;25.85;;;7.80;86.60;;;;;;5015234;28;20195;-69
2021/12/15 05:53:56;;;;;;;74.32;21.10;;;7.80;86.50;;;;;;5017413;28;20216;-69
2021/12/15 05:56:24;;;;;;;69.07;22.30;;;7.80;86.50;;;;;;5019724;28;20203;-69
2021/12/15 05:58:52;;;;;;;83.85;24.30;;;7.80;86.50;;;;;;5016553;28;20242;-69
2021/12/15 06:01:20;;;;;;;88.35;23.98;;;7.70;86.50;;;;;;5016364;28;20265;-69
2021/12/15 06:03:48;;;;;;;123.88;25.20;;;7.70;86.50;;;;;;5015833;28;20281;-69
2021/12/15 06:06:18;;;;;;;94.97;28.70;;;7.70;86.50;;;;;;5024235;28;20212;-68
2021/12/15 06:08:46;;;;;;;128.40;29.38;;;7.70;86.50;;;;;;5023107;28;20269;-69
2021/12/15 06:11:14;;;;;;;153.52;32.05;;;7.70;86.50;;;;;;5019953;28;20207;-68
2021/12/15 06:13:47;;;;;;;107.43;29.95;;;7.60;86.30;;;;;;5021871;28;20210;-69
2021/12/15 06:16:17;;;;;;;120.57;29.65;;;7.60;86.50;;;;;;5027605;28;20249;-69
2021/12/15 06:18:45;;;;;;;84.07;27.58;;;7.60;86.60;;;;;;5025676;28;20252;-69
2021/12/15 06:21:14;;;;;;;73.75;26.15;;;7.60;86.70;;;;;;5025112;28;20215;-69
2021/12/15 06:23:44;;;;;;;74.30;24.63;;;7.60;86.80;;;;;;5023918;28;20263;-68
2021/12/15 06:26:12;;;;;;;71.88;22.58;;;7.60;86.80;;;;;;5023937;28;20208;-69
2021/12/15 06:28:40;;;;;;;90.10;26.30;;;7.60;86.80;;;;;;5020914;28;20203;-68
2021/12/15 06:31:10;;;;;;;85.88;28.88;;;7.60;86.70;;;;;;5017420;28;20704;-69
2021/12/15 06:33:39;;;;;;;100.80;29.17;;;7.60;86.70;;;;;;5024487;28;20203;-69
2021/12/15 06:36:08;;;;;;;77.60;24.52;;;7.60;86.80;;;;;;5023884;28;20257;-69
2021/12/15 06:38:39;;;;;;;76.20;24.00;;;7.60;86.80;;;;;;5023261;28;20219;-69
2021/12/15 06:41:10;;;;;;;89.80;24.25;;;7.60;86.80;;;;;;5019992;28;20296;-69
2021/12/15 06:43:39;;;;;;;73.88;20.20;;;7.60;86.80;;;;;;5018169;28;20630;-69
2021/12/15 06:46:26;;;;;;;65.22;20.88;;;7.60;86.70;;;;;;5024955;28;20239;-69
2021/12/15 07:00:13;;;;;;;57.20;24.90;;;7.60;86.80;;;;;;4985429;28;20237;-69
2021/12/15 07:02:42;;;;;;;50.05;22.33;;;7.60;86.80;;;;;;4987934;28;20577;-69
2021/12/15 07:05:11;;;;;;;40.40;18.48;;;7.60;86.80;;;;;;5001225;28;20237;-69
2021/12/15 07:07:42;;;;;;;47.50;26.40;;;7.60;86.70;;;;;;5022562;28;20200;-69
2021/12/15 07:10:12;;;;;;;48.25;26.70;;;7.60;86.70;;;;;;5025829;28;20226;-69
2021/12/15 07:12:41;;;;;;;55.72;27.45;;;7.60;86.70;;;;;;5021801;28;20678;-69
2021/12/15 07:15:11;;;;;;;61.45;25.98;;;7.60;86.70;;;;;;5019670;28;20214;-68
2021/12/15 07:17:40;;;;;;;41.42;19.40;;;7.60;86.70;;;;;;5021239;28;20214;-68
2021/12/15 07:20:31;;;;;;;39.30;18.90;;;7.60;86.70;;;;;;5025256;28;20229;-68
2021/12/15 07:23:01;;;;;;;35.00;16.40;;;7.60;86.70;;;;;;5025671;28;20561;-68
2021/12/15 07:25:30;;;;;;;37.83;16.98;;;7.60;86.70;;;;;;5019611;28;20218;-68
2021/12/15 07:28:00;;;;;;;31.40;15.48;;;7.60;86.70;;;;;;5017819;28;20206;-69
2021/12/15 07:30:28;;;;;;;36.22;16.50;;;7.60;86.70;;;;;;5028670;28;20793;-69
2021/12/15 07:32:56;;;;;;;34.15;15.30;;;7.60;86.80;;;;;;5029310;28;20273;-69
2021/12/15 07:35:25;;;;;;;28.45;13.35;;;7.60;86.80;;;;;;5031667;28;20205;-69
2021/12/15 07:37:53;;;;;;;30.75;13.60;;;7.70;86.70;;;;;;5028764;28;20219;-69
2021/12/15 07:40:23;;;;;;;26.90;14.30;;;7.60;86.70;;;;;;5025650;28;20714;-69
2021/12/15 07:43:05;;;;;;;30.67;15.75;;;7.70;86.70;;;;;;5016259;28;20223;-68
2021/12/15 07:45:46;;;;;;;26.13;13.63;;;7.70;86.70;;;;;;5033358;28;20579;-69
2021/12/15 07:48:16;;;;;;;48.13;17.98;;;7.70;86.70;;;;;;5033188;28;20857;-69
2021/12/15 07:50:46;;;;;;;48.30;18.48;;;7.70;86.70;;;;;;5025540;28;20234;-69
2021/12/15 07:53:14;;;;;;;41.30;18.75;;;7.70;86.70;;;;;;5025340;28;20207;-69
2021/12/15 07:55:43;;;;;;;41.78;17.95;;;7.60;86.70;;;;;;5024515;28;20412;-69
2021/12/15 07:58:11;;;;;;;39.53;16.55;;;7.60;86.70;;;;;;5025052;28;20603;-69
2021/12/15 08:00:43;;;;;;;40.83;18.13;;;7.70;86.70;;;;;;5024491;28;20645;-69
2021/12/15 08:03:11;;;;;;;42.72;17.65;;;7.70;86.60;;;;;;5026913;28;20220;-68
2021/12/15 08:05:41;;;;;;;39.05;18.83;;;7.70;86.80;;;;;;5026954;28;20196;-69
2021/12/15 08:08:09;;;;;;;40.17;18.45;;;7.70;86.70;;;;;;5028476;28;20200;-69
2021/12/15 08:10:37;;;;;;;39.63;21.38;;;7.70;86.70;;;;;;5020202;28;20235;-69
2021/12/15 08:13:05;;;;;;;38.90;21.27;;;7.70;86.70;;;;;;5026824;28;20194;-69
2021/12/15 08:15:33;;;;;;;34.90;19.92;;;7.80;86.60;;;;;;5022384;28;20231;-69
2021/12/15 08:18:03;;;;;;;37.40;20.60;;;7.80;86.70;;;;;;5023713;28;20197;-69
2021/12/15 08:20:32;;;;;;;40.35;20.42;;;7.80;86.70;;;;;;5021413;28;20225;-69
2021/12/15 08:23:00;;;;;;;42.33;20.33;;;7.80;86.70;;;;;;5023123;28;20223;-69
2021/12/15 08:25:29;;;;;;;39.75;20.10;;;7.80;86.70;;;;;;5024519;28;20202;-69
2021/12/15 08:27:57;;;;;;;33.00;17.05;;;7.80;86.70;;;;;;5024296;28;20269;-69
2021/12/15 08:30:31;;;;;;;33.45;17.17;;;7.80;86.70;;;;;;5022948;28;20381;-69
2021/12/15 08:33:06;;;;;;;34.80;17.73;;;7.80;86.70;;;;;;5023168;28;20195;-69
2021/12/15 08:35:36;;;;;;;36.88;19.58;;;7.80;86.70;;;;;;5020917;28;20204;-69
2021/12/15 08:38:05;;;;;;;36.03;18.52;;;7.90;86.70;;;;;;5019379;28;20766;-69
2021/12/15 08:40:34;;;;;;;35.83;18.80;;;7.90;86.70;;;;;;5023012;28;20223;-69
2021/12/15 08:43:03;;;;;;;34.30;17.05;;;7.90;86.70;;;;;;5027984;28;20780;-69
2021/12/15 08:45:31;;;;;;;33.05;17.30;;;7.90;86.70;;;;;;5026425;28;20241;-69
2021/12/15 08:48:03;;;;;;;30.70;16.52;;;7.90;86.70;;;;;;5021018;28;20287;-69
2021/12/15 08:50:34;;;;;;;35.67;16.88;;;7.90;86.70;;;;;;5020613;28;20700;-69
2021/12/15 08:53:04;;;;;;;30.88;16.35;;;8.00;86.70;;;;;;5022301;28;20202;-69
2021/12/15 08:55:33;;;;;;;29.98;15.75;;;8.00;86.70;;;;;;5020985;28;20211;-70
2021/12/15 08:58:05;;;;;;;30.75;16.70;;;8.00;86.80;;;;;;5022369;28;20223;-69
2021/12/15 09:00:34;;;;;;;33.17;16.67;;;8.00;86.80;;;;;;5021072;28;20251;-69
2021/12/15 09:03:03;;;;;;;30.13;15.95;;;8.00;86.70;;;;;;5022990;28;20246;-69
2021/12/15 09:05:31;;;;;;;28.13;16.20;;;8.00;86.70;;;;;;5023833;28;20199;-70
2021/12/15 09:08:01;;;;;;;29.30;16.20;;;8.00;86.70;;;;;;5025152;28;20585;-69
2021/12/15 09:10:32;;;;;;;29.08;16.02;;;8.10;86.80;;;;;;5017898;28;20641;-70
2021/12/15 09:13:01;;;;;;;24.73;15.02;;;8.10;86.80;;;;;;5023054;28;20203;-69
2021/12/15 09:15:29;;;;;;;23.95;14.18;;;8.10;86.80;;;;;;5023987;28;20798;-69
2021/12/15 09:17:57;;;;;;;31.08;15.57;;;8.10;86.70;;;;;;5018352;28;20206;-69
2021/12/15 09:20:30;;;;;;;27.85;15.43;;;8.10;86.80;;;;;;5021591;28;20629;-69
2021/12/15 09:23:01;;;;;;;27.77;14.95;;;8.10;86.80;;;;;;5018131;28;20209;-69
2021/12/15 09:25:29;;;;;;;26.17;14.90;;;8.10;86.70;;;;;;5018516;28;20199;-69
2021/12/15 09:27:58;;;;;;;24.67;14.10;;;8.10;86.70;;;;;;5019107;28;20619;-69
2021/12/15 09:30:29;;;;;;;28.13;15.95;;;8.10;86.70;;;;;;5020734;28;20602;-70
2021/12/15 09:32:58;;;;;;;27.42;16.10;;;8.20;86.70;;;;;;5017700;28;20607;-69
2021/12/15 09:35:31;;;;;;;24.63;15.00;;;8.20;86.70;;;;;;5019832;28;20199;-69
2021/12/15 09:37:59;;;;;;;26.27;14.85;;;8.20;86.70;;;;;;5022550;28;20229;-69
2021/12/15 09:40:27;;;;;;;24.67;15.32;;;8.20;86.70;;;;;;5015981;28;20227;-69
2021/12/15 09:42:55;;;;;;;24.77;15.40;;;8.20;86.70;;;;;;5023241;28;20219;-69
2021/12/15 09:45:36;;;;;;;25.33;15.95;;;8.20;86.70;;;;;;5026913;28;20999;-69
2021/12/15 09:57:04;;;;;;;23.33;14.55;;;8.30;86.70;;;;;;5022599;28;20257;-70
2021/12/15 10:02:34;;;;;;;23.70;15.93;;;8.30;86.80;;;;;;5022859;28;20242;-70
2021/12/15 10:05:14;;;;;;;27.25;16.38;;;8.30;86.70;;;;;;5017235;28;20761;-69
2021/12/15 10:10:50;;;;;;;25.77;15.30;;;8.30;86.80;;;;;;5017648;28;20226;-69
2021/12/15 10:19:19;;;;;;;28.05;17.65;;;8.40;86.80;;;;;;5018283;28;20235;-70
2021/12/15 10:21:59;;;;;;;27.58;16.88;;;8.40;86.80;;;;;;5016713;28;20210;-69
2021/12/15 10:24:31;;;;;;;26.63;16.20;;;8.50;86.80;;;;;;5020493;28;20215;-69
2021/12/15 10:27:00;;;;;;;24.58;15.88;;;8.50;86.80;;;;;;5033265;28;20216;-70
2021/12/15 10:29:29;;;;;;;30.38;17.20;;;8.50;86.80;;;;;;5018522;28;20300;-70
2021/12/15 10:31:59;;;;;;;25.77;15.25;;;8.50;86.80;;;;;;5019207;28;20231;-69
2021/12/15 10:34:27;;;;;;;25.42;16.30;;;8.50;86.70;;;;;;5019396;28;20203;-69
2021/12/15 10:37:04;;;;;;;27.45;15.15;;;8.60;86.60;;;;;;5016501;28;20208;-69
2021/12/15 10:39:33;;;;;;;30.25;17.60;;;8.50;86.60;;;;;;5025876;28;20285;-69
2021/12/15 10:42:01;;;;;;;26.67;17.02;;;8.50;86.70;;;;;;5017917;28;20209;-69
2021/12/15 10:44:29;;;;;;;23.20;15.02;;;8.50;86.70;;;;;;5019528;28;20732;-69
2021/12/15 10:46:59;;;;;;;28.13;18.15;;;8.50;86.70;;;;;;5018360;28;20735;-69
2021/12/15 10:49:30;;;;;;;26.67;17.63;;;8.50;86.70;;;;;;5025298;28;20228;-69
2021/12/15 10:52:01;;;;;;;30.70;19.00;;;8.50;86.70;;;;;;5021951;28;20215;-72
2021/12/15 10:54:32;;;;;;;31.73;19.13;;;8.50;86.70;;;;;;5026803;28;20199;-69
2021/12/15 10:57:05;;;;;;;30.25;19.23;;;8.50;86.80;;;;;;5020731;28;20204;-69
2021/12/15 10:59:38;;;;;;;30.63;18.42;;;8.60;86.90;;;;;;5023695;28;20803;-69
2021/12/15 11:02:29;;;;;;;29.52;18.35;;;8.60;86.80;;;;;;5024672;28;20239;-68
2021/12/15 11:05:01;;;;;;;29.83;18.40;;;8.60;86.90;;;;;;5023051;28;20326;-68
2021/12/15 11:07:31;;;;;;;26.97;17.07;;;8.70;86.80;;;;;;5021692;28;20461;-69
2021/12/15 11:10:05;;;;;;;26.70;16.30;;;8.70;86.80;;;;;;5019529;28;20544;-69
2021/12/15 11:12:37;;;;;;;23.67;14.87;;;8.70;86.80;;;;;;5023606;28;20240;-68
2021/12/15 11:15:09;;;;;;;23.77;13.63;;;8.70;86.70;;;;;;5018905;28;20467;-69
2021/12/15 11:17:40;;;;;;;18.63;11.85;;;8.70;86.60;;;;;;5023373;28;20471;-68
2021/12/15 11:20:12;;;;;;;21.67;11.93;;;8.70;86.70;;;;;;5028986;28;20220;-68
2021/12/15 11:22:47;;;;;;;19.45;13.18;;;8.70;86.70;;;;;;5017026;28;20824;-68
2021/12/15 11:25:20;;;;;;;22.35;13.18;;;8.70;86.80;;;;;;5027464;28;20207;-68
2021/12/15 11:27:55;;;;;;;20.40;13.50;;;8.70;86.80;;;;;;5030574;28;20219;-68
2021/12/15 11:30:28;;;;;;;19.60;13.10;;;8.70;86.80;;;;;;5020897;28;20476;-70
2021/12/15 11:32:58;;;;;;;19.17;12.93;;;8.80;86.80;;;;;;5014748;28;20274;-69
2021/12/15 11:35:30;;;;;;;20.20;12.87;;;8.80;86.70;;;;;;5024718;28;20645;-70
2021/12/15 11:38:02;;;;;;;19.87;13.37;;;8.80;86.60;;;;;;5023588;28;20520;-70
2021/12/15 11:40:37;;;;;;;20.70;12.50;;;8.90;86.50;;;;;;5023332;28;21158;-70
2021/12/15 11:43:08;;;;;;;17.73;11.75;;;8.90;86.50;;;;;;5020329;28;20820;-70
2021/12/15 11:45:43;;;;;;;18.90;12.50;;;8.80;86.40;;;;;;5022470;28;20268;-70
2021/12/15 11:48:21;;;;;;;20.67;12.87;;;8.80;86.40;;;;;;5021758;28;20455;-70
2021/12/15 11:50:52;;;;;;;18.83;12.90;;;8.80;86.40;;;;;;5019690;28;21146;-71
2021/12/15 11:53:39;;;;;;;17.27;11.50;;;8.80;86.40;;;;;;5020212;28;20466;-69
2021/12/15 11:56:13;;;;;;;21.27;12.80;;;8.80;86.40;;;;;;5025908;28;20942;-69
2021/12/15 11:58:43;;;;;;;18.43;11.70;;;8.80;86.40;;;;;;5018851;28;20451;-69
2021/12/15 12:01:45;;;;;;;17.70;11.90;;;8.80;86.50;;;;;;5018886;28;20494;-69
2021/12/15 12:04:18;;;;;;;19.43;12.63;;;8.90;86.50;;;;;;5021734;28;20992;-69
2021/12/15 12:06:49;;;;;;;17.50;11.63;;;8.90;86.40;;;;;;5022649;28;21356;-69
2021/12/15 12:09:19;;;;;;;16.77;11.83;;;8.90;86.40;;;;;;5037184;28;20483;-69
2021/12/15 12:11:51;;;;;;;19.37;12.30;;;8.90;86.40;;;;;;5023688;28;21004;-69
2021/12/15 12:14:38;;;;;;;20.17;12.77;;;8.90;86.40;;;;;;5020758;28;20635;-69
2021/12/15 12:17:12;;;;;;;18.00;12.63;;;8.90;86.40;;;;;;5018092;28;21032;-69
2021/12/15 12:19:55;;;;;;;18.43;12.13;;;8.90;86.40;;;;;;5032344;28;20479;-69
2021/12/15 12:22:25;;;;;;;18.90;12.77;;;8.90;86.30;;;;;;5018354;28;20458;-69
2021/12/15 12:24:56;;;;;;;19.27;12.20;;;8.90;86.30;;;;;;5022807;28;20529;-69
2021/12/15 12:27:26;;;;;;;19.90;11.50;;;9.00;86.30;;;;;;5025666;28;20462;-69
2021/12/15 12:29:58;;;;;;;17.90;11.33;;;9.00;86.40;;;;;;5016111;28;20583;-69
2021/12/15 12:32:26;;;;;;;17.93;11.63;;;9.00;86.40;;;;;;5017560;28;20487;-69
2021/12/15 12:34:54;;;;;;;18.43;12.17;;;9.00;86.30;;;;;;5025387;28;20460;-69
2021/12/15 12:37:22;;;;;;;17.50;12.97;;;9.00;86.30;;;;;;5025806;28;20993;-68
2021/12/15 12:39:58;;;;;;;18.87;12.27;;;9.00;86.40;;;;;;5021428;28;21380;-68
2021/12/15 12:42:32;;;;;;;18.97;13.23;;;9.00;86.50;;;;;;5025633;28;20796;-69
2021/12/15 12:45:20;;;;;;;20.57;12.97;;;9.10;86.60;;;;;;5016143;28;20806;-69
2021/12/15 12:48:11;;;;;;;19.17;12.30;;;9.10;86.50;;;;;;5013118;28;20472;-68
2021/12/15 12:51:05;;;;;;;15.10;10.60;;;9.10;86.40;;;;;;5014679;28;20551;-68
2021/12/15 12:59:32;;;;;;;19.50;11.83;;;9.10;86.40;;;;;;5023238;28;21003;-69
2021/12/15 13:02:05;;;;;;;19.00;12.30;;;9.10;86.50;;;;;;5022624;28;20473;-69
2021/12/15 13:04:40;;;;;;;20.30;13.27;;;9.20;86.50;;;;;;5028243;28;20901;-68
2021/12/15 13:07:08;;;;;;;17.90;11.50;;;9.20;86.30;;;;;;5018387;28;20915;-68
2021/12/15 13:09:51;;;;;;;15.83;10.97;;;9.20;86.30;;;;;;5016213;28;20487;-68
2021/12/15 13:12:26;;;;;;;17.23;11.37;;;9.20;86.30;;;;;;5020410;28;20866;-68
2021/12/15 13:14:59;;;;;;;12.20;9.37;;;9.20;86.30;;;;;;5020640;28;20462;-68
2021/12/15 13:17:36;;;;;;;17.23;10.95;;;9.20;86.20;;;;;;5017163;28;21331;-68
2021/12/15 13:20:20;;;;;;;16.40;9.37;;;9.20;86.30;;;;;;5025789;28;20271;-68
2021/12/15 13:23:04;;;;;;;16.23;10.90;;;9.20;86.20;;;;;;5019970;28;20958;-69
2021/12/15 13:28:44;;;;;;;16.63;10.70;;;9.20;86.30;;;;;;5020446;28;20510;-68
2021/12/15 13:31:16;;;;;;;14.97;9.90;;;9.20;86.30;;;;;;5019429;28;20487;-68
2021/12/15 13:33:50;;;;;;;15.67;10.90;;;9.20;86.30;;;;;;5020254;28;20539;-68
2021/12/15 13:36:20;;;;;;;14.03;8.87;;;9.20;86.20;;;;;;5018586;28;20457;-68
2021/12/15 13:38:52;;;;;;;17.33;9.43;;;9.20;86.20;;;;;;5016522;28;20463;-68
2021/12/15 13:41:38;;;;;;;14.23;8.70;;;9.20;86.20;;;;;;5010988;28;20455;-68
2021/12/15 13:44:29;;;;;;;12.80;9.17;;;9.20;86.10;;;;;;5014578;28;20196;-71
2021/12/15 13:47:01;;;;;;;13.97;9.73;;;9.20;86.10;;;;;;5012771;28;20483;-69
2021/12/15 13:49:39;;;;;;;15.10;8.90;;;9.20;86.10;;;;;;5030411;28;20847;-70
2021/12/15 13:52:29;;;;;;;13.63;8.40;;;9.20;86.10;;;;;;5024776;28;20513;-69
2021/12/15 13:55:19;;;;;;;14.50;8.93;;;9.20;86.00;;;;;;5021150;28;20795;-69
2021/12/15 13:57:57;;;;;;;11.50;7.90;;;9.10;86.00;;;;;;5015385;28;20463;-71
2021/12/15 14:00:30;;;;;;;14.37;9.07;;;9.10;86.10;;;;;;5019957;28;20509;-70
2021/12/15 14:03:24;;;;;;;12.90;7.83;;;9.10;86.10;;;;;;5036441;28;20981;-69
2021/12/15 14:05:57;;;;;;;13.27;8.60;;;9.10;86.00;;;;;;5007394;28;20484;-69